createdAt,value
2019-01-03T00:02:20.522Z,94482.61
2019-01-03T00:05:15.264Z,94483.84
2019-01-03T00:08:06.650Z,94487.57
2019-01-03T00:10:55.028Z,94490.28
2019-01-03T00:13:49.320Z,94493.27
2019-01-03T00:16:52.285Z,94503.59
2019-01-03T00:19:54.147Z,94502.55
2019-01-03T00:22:54.888Z,94505.94
2019-01-03T00:25:42.038Z,94506.13
2019-01-03T00:28:29.018Z,94502.02
2019-01-03T00:31:25.055Z,94502.30
2019-01-03T00:34:12.819Z,94506.22
2019-01-03T00:37:01.286Z,94503.98
2019-01-03T00:39:49.767Z,94502.92
2019-01-03T00:42:50.321Z,94510.19
2019-01-03T00:45:44.607Z,94511.73
2019-01-03T00:48:33.028Z,94509.33
2019-01-03T00:51:20.280Z,94503.16
2019-01-03T00:54:14.596Z,94508.51
2019-01-03T00:57:01.823Z,94511.38
2019-01-03T00:59:56.351Z,94509.83
2019-01-03T01:02:50.891Z,94508.03
2019-01-03T01:05:45.998Z,94510.06
2019-01-03T01:08:34.864Z,94507.24
2019-01-03T01:11:22.316Z,94502.70
2019-01-03T01:14:21.766Z,94501.52
2019-01-03T01:17:25.207Z,94489.33
2019-01-03T01:20:12.531Z,94495.00
2019-01-03T01:22:59.901Z,94483.72
2019-01-03T01:25:48.293Z,94484.58
2019-01-03T01:28:35.497Z,94480.94
2019-01-03T01:31:36.049Z,94479.50
2019-01-03T01:34:23.381Z,94481.28
2019-01-03T01:37:23.799Z,94479.44
2019-01-03T01:40:11.287Z,94477.00
2019-01-03T01:43:21.351Z,94479.99
2019-01-03T01:46:08.718Z,94477.66
2019-01-03T01:49:12.491Z,94476.09
2019-01-03T01:52:19.127Z,94474.66
2019-01-03T01:55:06.401Z,94470.73
2019-01-03T01:57:57.835Z,94474.47
2019-01-03T02:00:48.351Z,94476.16
2019-01-03T02:03:45.880Z,94467.83
2019-01-03T02:06:32.936Z,94466.72
2019-01-03T02:09:20.286Z,94462.13
2019-01-03T02:12:20.815Z,94462.80
2019-01-03T02:15:09.314Z,94462.18
2019-01-03T02:18:03.847Z,94460.13
2019-01-03T02:21:07.680Z,94456.11
2019-01-03T02:23:55.205Z,94460.61
2019-01-03T02:26:46.704Z,94450.70
2019-01-03T02:29:52.876Z,94454.55
2019-01-03T02:32:43.993Z,94452.03
2019-01-03T02:35:27.831Z,94453.05
2019-01-03T02:38:22.633Z,94459.48
2019-01-03T02:41:20.217Z,94455.34
2019-01-03T02:44:08.647Z,94447.81
2019-01-03T02:47:12.452Z,94446.95
2019-01-03T02:50:00.201Z,94447.67
2019-01-03T02:52:59.079Z,94450.25
2019-01-03T02:55:46.372Z,94439.66
2019-01-03T02:58:31.481Z,94445.00
2019-01-03T03:01:13.024Z,94444.30
2019-01-03T03:04:10.504Z,94451.36
2019-01-03T03:07:10.887Z,94458.95
2019-01-03T03:09:58.176Z,94455.34
2019-01-03T03:12:45.298Z,94461.52
2019-01-03T03:15:48.866Z,94454.83
2019-01-03T03:18:32.082Z,94463.22
2019-01-03T03:21:20.517Z,94460.98
2019-01-03T03:24:21.019Z,94461.76
2019-01-03T03:27:21.550Z,94460.95
2019-01-03T03:30:16.286Z,94460.33
2019-01-03T03:33:07.851Z,94460.19
2019-01-03T03:35:56.205Z,94474.16
2019-01-03T03:38:43.655Z,94467.05
2019-01-03T03:41:29.077Z,94474.42
2019-01-03T03:44:18.139Z,94468.38
2019-01-03T03:47:02.930Z,94461.62
2019-01-03T03:49:51.072Z,94469.75
2019-01-03T03:52:45.582Z,94471.74
2019-01-03T03:55:49.322Z,94473.37
2019-01-03T03:58:36.679Z,94478.59
2019-01-03T04:01:32.803Z,94481.50
2019-01-03T04:04:20.081Z,94483.86
2019-01-03T04:07:11.568Z,94492.63
2019-01-03T04:10:04.882Z,94494.31
2019-01-03T04:13:04.940Z,94493.52
2019-01-03T04:15:47.856Z,94494.58
2019-01-03T04:18:36.780Z,94494.39
2019-01-03T04:21:28.214Z,94491.55
2019-01-03T04:24:34.865Z,94495.55
2019-01-03T04:27:32.380Z,94505.80
2019-01-03T04:30:19.705Z,94499.06
2019-01-03T04:33:08.132Z,94497.37
2019-01-03T04:35:55.481Z,94498.73
2019-01-03T04:38:37.261Z,94503.14
2019-01-03T04:41:25.761Z,94503.97
2019-01-03T04:44:06.372Z,94498.87
2019-01-03T04:46:49.287Z,94503.67
2019-01-03T04:49:43.502Z,94501.59
2019-01-03T04:52:34.981Z,94502.78
2019-01-03T04:55:29.308Z,94511.41
2019-01-03T04:58:36.101Z,94513.14
2019-01-03T05:01:59.192Z,94514.69
2019-01-03T05:04:56.686Z,94520.52
2019-01-03T05:07:43.323Z,94518.75
2019-01-03T05:10:34.645Z,94520.31
2019-01-03T05:13:32.203Z,94524.66
2019-01-03T05:16:21.805Z,94534.41
2019-01-03T05:19:09.121Z,94532.84
2019-01-03T05:21:56.270Z,94536.37
2019-01-03T05:24:56.833Z,94536.77
2019-01-03T05:30:33.210Z,94541.53
2019-01-03T05:33:20.549Z,94547.61
2019-01-03T05:36:15.153Z,94546.97
2019-01-03T05:39:02.276Z,94551.89
2019-01-03T05:42:03.127Z,94553.72
2019-01-03T05:45:04.073Z,94546.66
2019-01-03T05:47:54.773Z,94543.02
2019-01-03T05:50:42.332Z,94548.09
2019-01-03T05:53:33.741Z,94551.05
2019-01-03T05:56:34.379Z,94559.77
2019-01-03T05:59:21.673Z,94560.68
2019-01-03T06:02:19.739Z,94559.48
2019-01-03T06:05:20.436Z,94568.31
2019-01-03T06:08:08.831Z,94565.77
2019-01-03T06:10:46.839Z,94568.50
2019-01-03T06:13:44.515Z,94570.59
2019-01-03T06:16:50.978Z,94569.84
2019-01-03T06:19:51.425Z,94574.14
2019-01-03T06:22:42.932Z,94570.07
2019-01-03T06:25:29.975Z,94574.58
2019-01-03T06:28:17.577Z,94574.37
2019-01-03T06:31:11.992Z,94579.62
2019-01-03T06:34:20.705Z,94578.77
2019-01-03T06:37:03.316Z,94579.95
2019-01-03T06:40:01.007Z,94585.78
2019-01-03T06:42:55.573Z,94586.48
2019-01-03T06:45:42.958Z,94591.65
2019-01-03T06:48:30.351Z,94592.62
2019-01-03T06:51:18.820Z,94592.14
2019-01-03T06:54:05.997Z,94598.86
2019-01-03T06:57:09.418Z,94611.14
2019-01-03T06:59:56.411Z,94611.98
2019-01-03T07:02:41.196Z,94614.13
2019-01-03T07:05:28.585Z,94609.69
2019-01-03T07:08:16.108Z,94621.83
2019-01-03T07:11:05.085Z,94621.28
2019-01-03T07:13:52.072Z,94625.08
2019-01-03T07:16:39.392Z,94629.30
2019-01-03T07:19:42.933Z,94636.50
2019-01-03T07:22:37.409Z,94633.01
2019-01-03T07:25:28.847Z,94638.26
2019-01-03T07:28:15.857Z,94648.47
2019-01-03T07:31:19.466Z,94637.27
2019-01-03T07:34:12.506Z,94643.45
2019-01-03T07:36:59.632Z,94649.30
2019-01-03T07:39:47.074Z,94651.41
2019-01-03T07:42:34.531Z,94652.06
2019-01-03T07:45:21.891Z,94647.52
2019-01-03T07:48:09.317Z,94652.31
2019-01-03T07:51:00.005Z,94649.26
2019-01-03T07:53:57.815Z,94651.97
2019-01-03T07:57:01.732Z,94655.02
2019-01-03T07:59:53.269Z,94659.81
2019-01-03T08:02:41.646Z,94656.86
2019-01-03T08:05:43.904Z,94657.44
2019-01-03T08:08:32.343Z,94663.20
2019-01-03T08:11:19.649Z,94659.50
2019-01-03T08:14:14.111Z,94664.86
2019-01-03T08:17:01.651Z,94663.20
2019-01-03T08:20:05.431Z,94662.12
2019-01-03T08:22:45.120Z,94664.34
2019-01-03T08:25:32.508Z,94659.25
2019-01-03T08:28:20.946Z,94658.67
2019-01-03T08:31:18.312Z,94660.88
2019-01-03T08:34:06.709Z,94658.80
2019-01-03T08:36:51.254Z,94665.66
2019-01-03T08:39:39.702Z,94666.47
2019-01-03T08:42:31.144Z,94674.44
2019-01-03T08:45:22.849Z,94668.52
2019-01-03T08:48:21.974Z,94665.74
2019-01-03T08:51:09.237Z,94666.84
2019-01-03T08:54:00.791Z,94661.86
2019-01-03T08:56:55.334Z,94657.37
2019-01-03T08:59:42.435Z,94649.84
2019-01-03T09:02:29.526Z,94638.03
2019-01-03T09:05:16.863Z,94637.88
2019-01-03T09:08:04.034Z,94641.66
2019-01-03T09:10:50.964Z,94635.45
2019-01-03T09:13:43.637Z,94623.56
2019-01-03T09:16:38.209Z,94629.02
2019-01-03T09:19:41.912Z,94617.48
2019-01-03T09:22:36.062Z,94616.26
2019-01-03T09:25:23.426Z,94613.98
2019-01-03T09:28:18.010Z,94615.78
2019-01-03T09:31:18.757Z,94614.48
2019-01-03T09:34:02.925Z,94610.50
2019-01-03T09:36:54.655Z,94607.25
2019-01-03T09:39:48.865Z,94602.07
2019-01-03T09:42:49.601Z,94594.08
2019-01-03T09:45:19.439Z,94588.66
2019-01-03T09:47:49.115Z,94590.73
2019-01-03T09:50:18.632Z,94582.92
2019-01-03T09:52:48.164Z,94579.59
2019-01-03T09:55:17.650Z,94582.56
2019-01-03T09:57:47.203Z,94574.34
2019-01-03T10:00:16.698Z,94575.77
2019-01-03T10:02:46.201Z,94576.31
2019-01-03T10:05:15.738Z,94572.97
2019-01-03T10:07:45.234Z,94577.59
2019-01-03T10:10:14.820Z,94575.52
2019-01-03T10:12:44.504Z,94580.25
2019-01-03T10:15:13.957Z,94580.17
2019-01-03T10:17:43.460Z,94580.62
2019-01-03T10:20:12.967Z,94568.02
2019-01-03T10:22:42.441Z,94569.61
2019-01-03T10:25:11.923Z,94568.69
2019-01-03T10:27:41.545Z,94566.33
2019-01-03T10:30:11.097Z,94557.53
2019-01-03T10:32:40.625Z,94562.11
2019-01-03T10:35:10.144Z,94563.01
2019-01-03T10:37:39.709Z,94558.09
2019-01-03T10:40:09.251Z,94549.72
2019-01-03T10:42:38.762Z,94546.71
2019-01-03T10:45:09.703Z,94554.33
2019-01-03T10:47:39.294Z,94544.09
2019-01-03T10:50:08.829Z,94535.75
2019-01-03T10:52:38.337Z,94527.44
2019-01-03T10:55:07.853Z,94525.39
2019-01-03T10:57:37.390Z,94526.20
2019-01-03T11:00:07.571Z,94511.32
2019-01-03T11:02:37.348Z,94522.57
2019-01-03T11:05:06.857Z,94520.95
2019-01-03T11:07:36.431Z,94519.81
2019-01-03T11:10:06.235Z,94518.12
2019-01-03T11:12:35.733Z,94520.02
2019-01-03T11:15:05.439Z,94509.39
2019-01-03T11:17:34.886Z,94510.23
2019-01-03T11:20:04.943Z,94510.86
2019-01-03T11:22:34.539Z,94511.52
2019-01-03T11:25:04.192Z,94505.87
2019-01-03T11:27:33.698Z,94509.62
2019-01-03T11:30:06.417Z,94509.14
2019-01-03T11:32:35.940Z,94501.09
2019-01-03T11:35:05.714Z,94502.72
2019-01-03T11:37:35.263Z,94498.82
2019-01-03T11:40:05.658Z,94496.58
2019-01-03T11:42:35.230Z,94495.91
2019-01-03T11:45:04.983Z,94498.19
2019-01-03T11:47:34.542Z,94492.05
2019-01-03T11:50:04.042Z,94496.08
2019-01-03T11:52:33.664Z,94504.34
2019-01-03T11:55:03.218Z,94500.31
2019-01-03T11:57:32.723Z,94499.51
2019-01-03T12:00:02.268Z,94497.08
2019-01-03T12:02:31.999Z,94495.12
2019-01-03T12:05:01.665Z,94500.47
2019-01-03T12:07:33.472Z,94506.94
2019-01-03T12:10:02.930Z,94501.73
2019-01-03T12:12:32.493Z,94513.36
2019-01-03T12:15:02.048Z,94512.07
2019-01-03T12:17:31.569Z,94514.13
2019-01-03T12:20:01.084Z,94517.86
2019-01-03T12:22:30.620Z,94520.73
2019-01-03T12:25:00.155Z,94523.98
2019-01-03T12:27:29.704Z,94513.75
2019-01-03T12:29:59.293Z,94515.98
2019-01-03T12:32:28.820Z,94516.13
2019-01-03T12:34:58.335Z,94511.77
2019-01-03T12:37:28.053Z,94504.83
2019-01-03T12:39:57.578Z,94512.70
2019-01-03T12:42:27.113Z,94519.80
2019-01-03T12:44:56.584Z,94526.41
2019-01-03T12:47:26.049Z,94523.79
2019-01-03T12:49:55.595Z,94534.80
2019-01-03T12:52:25.057Z,94528.92
2019-01-03T12:54:54.630Z,94531.32
2019-01-03T12:57:24.140Z,94532.69
2019-01-03T12:59:53.682Z,94534.23
2019-01-03T13:02:23.202Z,94523.44
2019-01-03T13:04:52.686Z,94530.44
2019-01-03T13:07:22.128Z,94531.43
2019-01-03T13:09:51.647Z,94531.42
2019-01-03T13:12:21.114Z,94549.59
2019-01-03T13:14:50.612Z,94562.19
2019-01-03T13:17:20.125Z,94551.27
2019-01-03T13:19:49.599Z,94558.97
2019-01-03T13:22:19.141Z,94544.44
2019-01-03T13:24:48.610Z,94551.41
2019-01-03T13:27:18.118Z,94550.84
2019-01-03T13:29:49.310Z,94548.52
2019-01-03T13:32:18.841Z,94558.47
2019-01-03T13:34:50.146Z,94552.23
2019-01-03T13:37:19.718Z,94547.73
2019-01-03T13:39:49.592Z,94539.89
2019-01-03T13:42:20.377Z,94536.45
2019-01-03T13:44:52.165Z,94530.90
2019-01-03T13:47:21.696Z,94536.73
2019-01-03T13:49:52.876Z,94524.78
2019-01-03T13:52:22.240Z,94535.27
2019-01-03T13:54:54.690Z,94522.19
2019-01-03T13:57:24.239Z,94534.22
2019-01-03T13:59:56.485Z,94543.33
2019-01-03T14:02:26.160Z,94541.03
2019-01-03T14:04:57.432Z,94542.04
2019-01-03T14:07:28.094Z,94535.54
2019-01-03T14:09:57.740Z,94533.22
2019-01-03T14:12:27.217Z,94537.70
2019-01-03T14:14:56.766Z,94528.05
2019-01-03T14:17:26.286Z,94533.28
2019-01-03T14:19:55.787Z,94529.12
2019-01-03T14:22:25.637Z,94532.55
2019-01-03T14:24:55.138Z,94534.76
2019-01-03T14:27:24.693Z,94525.27
2019-01-03T14:29:54.214Z,94518.73
2019-01-03T14:32:23.851Z,94528.58
2019-01-03T14:34:53.480Z,94524.23
2019-01-03T14:37:22.918Z,94523.03
2019-01-03T14:39:52.583Z,94520.70
2019-01-03T14:42:22.050Z,94524.73
2019-01-03T14:44:51.575Z,94524.80
2019-01-03T14:47:23.278Z,94518.20
2019-01-03T14:49:53.305Z,94527.95
2019-01-03T14:52:23.945Z,94534.90
2019-01-03T14:54:58.533Z,94541.83
2019-01-03T14:57:34.790Z,94545.31
2019-01-03T15:00:04.482Z,94542.71
2019-01-03T15:02:34.379Z,94538.19
2019-01-03T15:05:04.002Z,94537.14
2019-01-03T15:07:40.121Z,94532.87
2019-01-03T15:10:09.734Z,94538.38
2019-01-03T15:12:39.294Z,94543.05
2019-01-03T15:15:09.029Z,94552.79
2019-01-03T15:17:39.009Z,94562.47
2019-01-03T15:20:21.694Z,94560.81
2019-01-03T15:23:08.167Z,94565.83
2019-01-03T15:25:43.615Z,94559.30
2019-01-03T15:28:15.659Z,94563.78
2019-01-03T15:30:45.675Z,94565.18
2019-01-03T15:33:15.170Z,94562.77
2019-01-03T15:35:44.675Z,94571.91
2019-01-03T15:38:14.866Z,94576.05
2019-01-03T15:40:44.435Z,94565.36
2019-01-03T15:43:13.974Z,94569.73
2019-01-03T15:45:49.704Z,94590.94
2019-01-03T15:48:19.354Z,94584.73
2019-01-03T15:50:48.790Z,94588.05
2019-01-03T15:53:18.329Z,94577.36
2019-01-03T15:55:47.840Z,94584.50
2019-01-03T15:58:17.737Z,94587.13
2019-01-03T16:00:47.224Z,94579.83
2019-01-03T16:03:16.784Z,94582.53
2019-01-03T16:05:46.397Z,94589.45
2019-01-03T16:08:15.928Z,94591.89
2019-01-03T16:10:45.398Z,94592.02
2019-01-03T16:13:14.883Z,94578.20
2019-01-03T16:15:44.429Z,94587.55
2019-01-03T16:18:14.100Z,94595.07
2019-01-03T16:20:43.629Z,94601.63
2019-01-03T16:23:13.162Z,94592.58
2019-01-03T16:25:42.819Z,94592.11
2019-01-03T16:28:13.058Z,94594.73
2019-01-03T16:30:42.618Z,94599.19
2019-01-03T16:33:12.164Z,94601.45
2019-01-03T16:35:47.848Z,94613.42
2019-01-03T16:38:12.995Z,94611.66
2019-01-03T16:40:42.566Z,94616.20
2019-01-03T16:43:12.023Z,94619.37
2019-01-03T16:45:41.560Z,94612.86
2019-01-03T16:48:11.024Z,94619.58
2019-01-03T16:50:40.470Z,94625.66
2019-01-03T16:53:10.012Z,94625.66
2019-01-03T16:55:39.478Z,94612.37
2019-01-03T16:58:09.006Z,94618.67
2019-01-03T17:00:38.562Z,94614.77
2019-01-03T17:03:08.034Z,94617.38
2019-01-03T17:05:37.567Z,94631.52
2019-01-03T17:08:07.103Z,94633.95
2019-01-03T17:10:36.653Z,94640.64
2019-01-03T17:13:06.159Z,94640.45
2019-01-03T17:15:35.632Z,94630.77
2019-01-03T17:18:05.098Z,94644.98
2019-01-03T17:20:34.621Z,94649.12
2019-01-03T17:23:04.106Z,94649.99
2019-01-03T17:25:33.586Z,94650.52
2019-01-03T17:28:03.060Z,94654.56
2019-01-03T17:30:32.547Z,94642.31
2019-01-03T17:33:02.068Z,94660.03
2019-01-03T17:35:31.604Z,94666.19
2019-01-03T17:38:01.116Z,94666.53
2019-01-03T17:40:30.653Z,94671.18
2019-01-03T17:43:00.177Z,94674.71
2019-01-03T17:45:29.647Z,94675.00
2019-01-03T17:47:59.253Z,94672.09
2019-01-03T17:50:28.782Z,94674.00
2019-01-03T17:52:58.273Z,94675.05
2019-01-03T17:55:28.095Z,94675.88
2019-01-03T17:57:57.620Z,94668.81
2019-01-03T18:00:29.198Z,94679.38
2019-01-03T18:02:58.700Z,94677.29
2019-01-03T18:05:28.207Z,94681.59
2019-01-03T18:07:57.913Z,94678.68
2019-01-03T18:10:27.497Z,94689.36
2019-01-03T18:12:57.167Z,94691.45
2019-01-03T18:15:26.674Z,94688.06
2019-01-03T18:17:57.288Z,94678.91
2019-01-03T18:20:26.761Z,94675.42
2019-01-03T18:22:56.288Z,94680.83
2019-01-03T18:25:25.746Z,94675.48
2019-01-03T18:27:55.236Z,94684.05
2019-01-03T18:30:24.722Z,94683.58
2019-01-03T18:32:54.211Z,94686.20
2019-01-03T18:35:23.802Z,94684.81
2019-01-03T18:37:53.319Z,94689.12
2019-01-03T18:40:22.875Z,94696.02
2019-01-03T18:42:52.388Z,94696.72
2019-01-03T18:45:24.409Z,94698.59
2019-01-03T18:47:53.934Z,94689.02
2019-01-03T18:50:23.397Z,94692.62
2019-01-03T18:52:53.093Z,94693.52
2019-01-03T18:55:22.652Z,94694.95
2019-01-03T18:57:52.164Z,94702.66
2019-01-03T19:00:21.662Z,94705.69
2019-01-03T19:02:51.211Z,94699.88
2019-01-03T19:05:20.702Z,94706.56
2019-01-03T19:07:53.190Z,94703.64
2019-01-03T19:10:28.131Z,94705.63
2019-01-03T19:12:54.036Z,94709.61
2019-01-03T19:15:23.535Z,94711.12
2019-01-03T19:17:53.131Z,94706.78
2019-01-03T19:20:22.619Z,94709.07
2019-01-03T19:22:52.178Z,94708.11
2019-01-03T19:25:21.693Z,94710.43
2019-01-03T19:27:51.201Z,94711.23
2019-01-03T19:30:20.755Z,94711.37
2019-01-03T19:32:50.258Z,94713.24
2019-01-03T19:35:19.717Z,94715.16
2019-01-03T19:37:49.226Z,94727.99
2019-01-03T19:40:18.696Z,94724.14
2019-01-03T19:42:48.744Z,94721.33
2019-01-03T19:45:18.439Z,94719.82
2019-01-03T19:47:48.070Z,94715.91
2019-01-03T19:50:21.096Z,94721.08
2019-01-03T19:52:50.667Z,94714.38
2019-01-03T19:55:20.171Z,94715.62
2019-01-03T19:57:49.644Z,94718.75
2019-01-03T20:00:19.248Z,94719.33
2019-01-03T20:02:48.743Z,94718.39
2019-01-03T20:05:18.261Z,94713.80
2019-01-03T20:07:48.531Z,94716.59
2019-01-03T20:10:18.125Z,94713.98
2019-01-03T20:12:47.655Z,94723.59
2019-01-03T20:15:17.156Z,94723.83
2019-01-03T20:17:46.734Z,94720.68
2019-01-03T20:20:16.225Z,94713.45
2019-01-03T20:22:45.726Z,94714.48
2019-01-03T20:25:15.230Z,94723.09
2019-01-03T20:27:44.771Z,94711.06
2019-01-03T20:30:14.297Z,94713.98
2019-01-03T20:32:43.830Z,94714.34
2019-01-03T20:35:13.312Z,94723.30
2019-01-03T20:37:42.799Z,94726.91
2019-01-03T20:40:12.717Z,94723.41
2019-01-03T20:42:44.205Z,94727.25
2019-01-03T20:45:13.963Z,94738.66
2019-01-03T20:47:43.430Z,94733.67
2019-01-03T20:50:13.035Z,94738.07
2019-01-03T20:52:43.348Z,94733.25
2019-01-03T20:55:12.829Z,94725.28
2019-01-03T20:57:42.541Z,94737.22
2019-01-03T21:00:14.049Z,94734.06
2019-01-03T21:02:43.621Z,94737.56
2019-01-03T21:05:13.613Z,94727.30
2019-01-03T21:07:43.071Z,94734.87
2019-01-03T21:10:13.426Z,94731.03
2019-01-03T21:12:43.107Z,94730.77
2019-01-03T21:15:15.396Z,94726.02
2019-01-03T21:17:45.483Z,94729.32
2019-01-03T21:20:15.750Z,94734.34
2019-01-03T21:22:45.430Z,94730.14
2019-01-03T21:25:15.571Z,94727.84
2019-01-03T21:27:45.095Z,94729.83
2019-01-03T21:30:17.701Z,94740.08
2019-01-03T21:32:47.300Z,94733.35
2019-01-03T21:35:16.810Z,94737.05
2019-01-03T21:37:46.374Z,94738.10
2019-01-03T21:40:15.962Z,94730.38
2019-01-03T21:42:48.547Z,94742.03
2019-01-03T21:45:18.033Z,94736.75
2019-01-03T21:47:47.516Z,94733.67
2019-01-03T21:50:17.088Z,94726.64
2019-01-03T21:52:46.657Z,94736.44
2019-01-03T21:55:16.362Z,94743.78
2019-01-03T21:57:57.492Z,94736.78
2019-01-03T22:00:27.045Z,94741.69
2019-01-03T22:02:56.514Z,94742.73
2019-01-03T22:05:26.986Z,94745.88
2019-01-03T22:07:56.554Z,94748.72
2019-01-03T22:10:28.533Z,94757.23
2019-01-03T22:12:57.980Z,94758.39
2019-01-03T22:15:33.969Z,94761.16
2019-01-03T22:18:06.460Z,94764.78
2019-01-03T22:20:36.039Z,94772.36
2019-01-03T22:23:05.750Z,94786.83
2019-01-03T22:25:35.333Z,94786.47
2019-01-03T22:28:09.825Z,94786.38
2019-01-03T22:30:40.951Z,94782.06
2019-01-03T22:33:10.361Z,94785.47
2019-01-03T22:35:39.818Z,94785.94
2019-01-03T22:38:09.337Z,94794.47
2019-01-03T22:40:38.795Z,94786.77
2019-01-03T22:43:08.320Z,94794.58
2019-01-03T22:45:37.832Z,94786.77
2019-01-03T22:48:07.384Z,94791.17
2019-01-03T22:50:36.875Z,94793.87
2019-01-03T22:53:06.403Z,94792.72
2019-01-03T22:55:41.911Z,94795.16
2019-01-03T22:58:11.407Z,94797.17
2019-01-03T23:00:47.742Z,94805.80
2019-01-03T23:03:17.286Z,94799.01
2019-01-03T23:05:46.747Z,94796.00
2019-01-03T23:08:16.220Z,94803.79
2019-01-03T23:10:45.717Z,94803.79
2019-01-03T23:13:15.205Z,94798.80
2019-01-03T23:15:44.819Z,94801.11
2019-01-03T23:18:14.442Z,94804.27
2019-01-03T23:20:43.923Z,94802.27
2019-01-03T23:23:13.372Z,94806.02
2019-01-03T23:25:42.805Z,94807.05
2019-01-03T23:28:12.307Z,94800.91
2019-01-03T23:30:41.908Z,94805.77
2019-01-03T23:33:11.389Z,94810.55
2019-01-03T23:35:40.866Z,94811.70
2019-01-03T23:38:10.334Z,94807.85
2019-01-03T23:40:39.808Z,94819.44
2019-01-03T23:43:09.399Z,94815.94
2019-01-03T23:45:39.596Z,94820.11
2019-01-03T23:48:09.130Z,94828.61
2019-01-03T23:50:38.570Z,94830.01
2019-01-03T23:53:08.050Z,94829.78
2019-01-03T23:55:45.430Z,94824.66
2019-01-03T23:58:14.860Z,94832.83
